createdAt,value
2023-01-02T00:02:16.047Z,85.30
2023-01-02T00:04:45.628Z,85.20
2023-01-02T00:07:15.268Z,85.30
2023-01-02T00:09:45.328Z,85.20
2023-01-02T00:12:14.936Z,85.30
2023-01-02T00:14:44.648Z,85.30
2023-01-02T00:17:14.217Z,85.40
2023-01-02T00:19:44.535Z,85.60
2023-01-02T00:22:14.125Z,85.60
2023-01-02T00:24:43.653Z,85.70
2023-01-02T00:27:13.227Z,85.90
2023-01-02T00:29:43.101Z,85.60
2023-01-02T00:32:12.684Z,85.60
2023-01-02T00:34:42.261Z,85.90
2023-01-02T00:37:11.902Z,85.90
2023-01-02T00:39:41.455Z,86.00
2023-01-02T00:42:10.960Z,85.90
2023-01-02T00:44:40.648Z,86.00
2023-01-02T00:47:10.164Z,86.10
2023-01-02T00:49:39.699Z,86.20
2023-01-02T00:52:09.382Z,86.20
2023-01-02T00:54:38.911Z,86.20
2023-01-02T00:57:08.488Z,86.20
2023-01-02T00:59:38.115Z,86.40
2023-01-02T01:02:07.836Z,86.50
2023-01-02T01:04:38.780Z,86.40
2023-01-02T01:07:08.413Z,86.30
2023-01-02T01:09:38.024Z,86.60
2023-01-02T01:12:07.785Z,86.50
2023-01-02T01:14:37.476Z,86.50
2023-01-02T01:17:07.188Z,86.40
2023-01-02T01:19:37.940Z,86.40
2023-01-02T01:22:08.118Z,86.50
2023-01-02T01:24:37.745Z,86.60
2023-01-02T01:27:07.370Z,86.40
2023-01-02T01:29:38.431Z,86.40
2023-01-02T01:32:08.642Z,86.40
2023-01-02T01:34:38.285Z,86.40
2023-01-02T01:37:07.900Z,86.40
2023-01-02T01:39:37.606Z,86.40
2023-01-02T01:42:07.350Z,86.40
2023-01-02T01:44:56.808Z,86.30
2023-01-02T01:47:49.466Z,86.30
2023-01-02T01:50:34.413Z,86.40
2023-01-02T01:53:11.763Z,86.40
2023-01-02T01:55:57.618Z,86.30
2023-01-02T01:58:32.398Z,86.40
2023-01-02T02:01:02.659Z,86.40
2023-01-02T02:03:34.736Z,86.20
2023-01-02T02:06:05.315Z,86.10
2023-01-02T02:09:00.500Z,86.10
2023-01-02T02:11:31.156Z,86.00
2023-01-02T02:14:02.506Z,86.00
2023-01-02T02:16:56.091Z,85.90
2023-01-02T02:20:03.552Z,85.60
2023-01-02T02:23:12.169Z,85.60
2023-01-02T02:26:20.936Z,85.60
2023-01-02T02:29:23.006Z,85.50
2023-01-02T02:32:24.324Z,85.40
2023-01-02T02:35:16.415Z,85.30
2023-01-02T02:38:13.351Z,84.90
2023-01-02T02:41:07.185Z,84.50
2023-01-02T02:44:08.706Z,84.20
2023-01-02T02:47:03.364Z,84.00
2023-01-02T02:50:12.209Z,83.60
2023-01-02T02:52:54.551Z,83.30
2023-01-02T02:55:46.984Z,83.10
2023-01-02T02:58:18.482Z,82.90
2023-01-02T03:00:50.726Z,82.80
2023-01-02T03:03:25.946Z,82.80
2023-01-02T03:06:23.787Z,82.60
2023-01-02T03:09:08.403Z,82.50
2023-01-02T03:12:17.156Z,82.00
2023-01-02T03:15:09.387Z,82.00
2023-01-02T03:18:08.712Z,81.60
2023-01-02T03:20:51.141Z,81.20
2023-01-02T03:23:25.903Z,81.00
2023-01-02T03:25:56.534Z,80.80
2023-01-02T03:28:28.036Z,80.70
2023-01-02T03:31:01.878Z,80.60
2023-01-02T03:33:39.300Z,80.40
2023-01-02T03:36:17.845Z,80.10
2023-01-02T03:39:01.914Z,79.80
2023-01-02T03:41:37.047Z,79.70
2023-01-02T03:44:11.219Z,79.50
2023-01-02T03:46:53.154Z,79.50
2023-01-02T03:49:31.947Z,79.30
2023-01-02T03:52:02.425Z,79.20
2023-01-02T03:54:32.998Z,78.90
2023-01-02T03:57:11.910Z,78.70
2023-01-02T04:00:11.468Z,78.70
2023-01-02T04:03:10.912Z,78.70
2023-01-02T04:05:55.564Z,78.30
2023-01-02T04:08:47.049Z,77.90
2023-01-02T04:11:21.232Z,77.60
2023-01-02T04:14:01.774Z,77.60
2023-01-02T04:16:35.259Z,77.20
2023-01-02T04:19:17.647Z,77.10
2023-01-02T04:21:50.927Z,77.40
2023-01-02T04:24:28.382Z,76.70
2023-01-02T04:27:13.873Z,76.80
2023-01-02T04:29:43.935Z,76.30
2023-01-02T04:32:25.208Z,75.70
2023-01-02T04:34:56.809Z,75.90
2023-01-02T04:37:35.947Z,75.40
2023-01-02T04:40:11.962Z,75.30
2023-01-02T04:42:41.579Z,75.20
2023-01-02T04:45:11.736Z,75.10
2023-01-02T04:47:41.384Z,74.50
2023-01-02T04:50:12.130Z,74.50
2023-01-02T04:52:41.730Z,74.20
2023-01-02T04:55:12.495Z,74.40
2023-01-02T04:57:42.168Z,73.80
2023-01-02T05:00:12.390Z,73.70
2023-01-02T05:02:43.803Z,73.60
2023-01-02T05:05:13.586Z,73.00
2023-01-02T05:07:43.234Z,72.80
2023-01-02T05:10:13.081Z,72.70
2023-01-02T05:12:43.217Z,72.70
2023-01-02T05:15:13.319Z,72.50
2023-01-02T05:17:44.325Z,72.10
2023-01-02T05:20:15.008Z,71.90
2023-01-02T05:23:05.900Z,71.70
2023-01-02T05:25:37.849Z,71.80
2023-01-02T05:28:07.540Z,71.40
2023-01-02T05:30:39.494Z,71.70
2023-01-02T05:33:09.123Z,71.30
2023-01-02T05:35:39.007Z,71.00
2023-01-02T05:38:08.800Z,71.00
2023-01-02T05:40:38.408Z,70.60
2023-01-02T05:43:08.000Z,70.60
2023-01-02T05:45:37.569Z,70.40
2023-01-02T05:48:07.465Z,70.10
2023-01-02T05:50:37.068Z,70.20
2023-01-02T05:53:06.590Z,70.20
2023-01-02T05:55:36.139Z,70.20
2023-01-02T05:58:05.785Z,69.90
2023-01-02T06:00:35.478Z,70.00
2023-01-02T06:03:05.190Z,69.70
2023-01-02T06:05:36.257Z,69.60
2023-01-02T06:08:05.932Z,69.20
2023-01-02T06:10:35.574Z,69.20
2023-01-02T06:13:05.272Z,69.40
2023-01-02T06:15:36.407Z,68.90
2023-01-02T06:18:06.050Z,68.70
2023-01-02T06:20:35.681Z,68.60
2023-01-02T06:23:05.377Z,68.60
2023-01-02T06:25:36.332Z,68.50
2023-01-02T06:28:07.218Z,68.40
2023-01-02T06:30:36.902Z,68.10
2023-01-02T06:33:06.579Z,67.90
2023-01-02T06:35:36.312Z,67.70
2023-01-02T06:38:06.307Z,67.80
2023-01-02T06:40:35.912Z,67.20
2023-01-02T06:43:05.570Z,67.40
2023-01-02T06:45:35.271Z,68.20
2023-01-02T06:48:04.956Z,67.40
2023-01-02T06:50:35.231Z,67.00
2023-01-02T06:53:05.076Z,67.00
2023-01-02T06:55:34.727Z,66.90
2023-01-02T06:58:09.375Z,66.30
2023-01-02T07:00:42.159Z,66.30
2023-01-02T07:03:11.831Z,65.90
2023-01-02T07:05:41.598Z,65.60
2023-01-02T07:08:12.455Z,65.60
2023-01-02T07:10:42.114Z,65.00
2023-01-02T07:13:11.766Z,64.80
2023-01-02T07:15:41.477Z,64.30
2023-01-02T07:18:11.086Z,64.20
2023-01-02T07:20:40.715Z,64.20
2023-01-02T07:23:10.460Z,64.40
2023-01-02T07:25:44.392Z,64.10
2023-01-02T07:28:15.158Z,64.30
2023-01-02T07:30:44.712Z,64.30
2023-01-02T07:33:14.308Z,63.90
2023-01-02T07:35:44.299Z,63.70
2023-01-02T07:38:14.469Z,63.60
2023-01-02T07:40:44.037Z,63.70
2023-01-02T07:43:13.731Z,63.40
2023-01-02T07:45:49.594Z,63.40
2023-01-02T07:48:20.548Z,63.20
2023-01-02T07:50:50.100Z,63.20
2023-01-02T07:53:19.684Z,63.30
2023-01-02T07:55:56.577Z,63.30
2023-01-02T07:58:26.498Z,63.50
2023-01-02T08:01:03.249Z,63.10
2023-01-02T08:03:35.808Z,63.20
2023-01-02T08:06:14.195Z,63.00
2023-01-02T08:08:44.531Z,63.30
2023-01-02T08:11:17.564Z,63.20
2023-01-02T08:13:47.978Z,63.20
2023-01-02T08:16:24.512Z,62.90
2023-01-02T08:18:58.187Z,63.00
2023-01-02T08:21:29.008Z,62.80
2023-01-02T08:23:58.682Z,63.00
2023-01-02T08:26:28.302Z,62.80
2023-01-02T08:28:58.671Z,63.00
2023-01-02T08:31:28.350Z,63.30
2023-01-02T08:33:58.066Z,63.40
2023-01-02T08:36:27.654Z,63.40
2023-01-02T08:38:57.691Z,63.40
2023-01-02T08:41:39.093Z,63.20
2023-01-02T08:44:09.706Z,63.30
2023-01-02T08:46:42.903Z,63.10
2023-01-02T08:49:13.937Z,62.90
2023-01-02T08:51:43.553Z,63.00
2023-01-02T08:54:13.124Z,62.90
2023-01-02T08:56:43.180Z,63.00
2023-01-02T08:59:14.789Z,62.90
2023-01-02T09:01:44.994Z,64.00
2023-01-02T09:04:14.661Z,63.10
2023-01-02T09:06:45.408Z,63.30
2023-01-02T09:09:17.672Z,63.40
2023-01-02T09:11:51.980Z,63.40
2023-01-02T09:14:23.587Z,63.40
2023-01-02T09:16:54.071Z,63.30
2023-01-02T09:19:23.698Z,63.50
2023-01-02T09:21:53.479Z,63.40
2023-01-02T09:24:23.167Z,63.50
2023-01-02T09:26:52.913Z,63.40
2023-01-02T09:29:23.484Z,63.60
2023-01-02T09:31:53.079Z,63.60
2023-01-02T09:34:22.724Z,63.70
2023-01-02T09:36:52.381Z,63.80
2023-01-02T09:39:25.607Z,63.80
2023-01-02T09:42:02.407Z,63.80
2023-01-02T09:44:54.484Z,64.00
2023-01-02T09:47:32.659Z,64.10
2023-01-02T09:50:07.045Z,64.10
2023-01-02T09:52:44.586Z,63.90
2023-01-02T09:55:21.309Z,64.30
2023-01-02T09:58:16.168Z,64.30
2023-01-02T10:00:48.045Z,64.50
2023-01-02T10:03:42.454Z,64.70
2023-01-02T10:06:19.540Z,65.30
2023-01-02T10:09:12.639Z,64.70
2023-01-02T10:11:58.891Z,64.80
2023-01-02T10:15:00.205Z,64.90
2023-01-02T10:17:35.486Z,64.90
2023-01-02T10:20:29.355Z,65.10
2023-01-02T10:23:22.969Z,65.30
2023-01-02T10:26:05.609Z,65.30
2023-01-02T10:29:01.780Z,65.50
2023-01-02T10:31:57.828Z,65.40
2023-01-02T10:34:32.056Z,65.50
2023-01-02T10:37:06.212Z,65.50
2023-01-02T10:39:37.669Z,65.60
2023-01-02T10:42:08.504Z,65.60
2023-01-02T10:44:40.626Z,65.60
2023-01-02T10:47:37.565Z,65.70
2023-01-02T10:50:09.995Z,65.80
2023-01-02T10:52:50.817Z,65.80
2023-01-02T10:55:47.149Z,65.90
2023-01-02T10:58:29.051Z,66.00
2023-01-02T11:01:23.200Z,66.10
2023-01-02T11:04:15.313Z,66.20
2023-01-02T11:07:01.107Z,66.30
2023-01-02T11:09:33.592Z,66.40
2023-01-02T11:12:15.393Z,66.50
2023-01-02T11:14:45.040Z,66.70
2023-01-02T11:17:23.694Z,66.70
2023-01-02T11:19:58.598Z,66.80
2023-01-02T11:22:39.267Z,66.80
2023-01-02T11:25:14.432Z,66.90
2023-01-02T11:27:45.782Z,67.10
2023-01-02T11:30:37.829Z,67.30
2023-01-02T11:33:29.891Z,67.40
2023-01-02T11:36:08.431Z,67.40
2023-01-02T11:38:50.490Z,67.60
2023-01-02T11:42:01.662Z,67.70
2023-01-02T11:44:59.264Z,67.70
2023-01-02T11:47:36.396Z,67.80
2023-01-02T11:50:06.515Z,67.90
2023-01-02T11:52:48.307Z,68.00
2023-01-02T11:55:48.712Z,68.20
2023-01-02T11:58:57.458Z,68.20
2023-01-02T12:01:49.990Z,68.30
2023-01-02T12:04:19.669Z,68.30
2023-01-02T12:07:22.212Z,68.40
2023-01-02T12:10:31.005Z,68.50
2023-01-02T12:13:39.874Z,68.50
2023-01-02T12:16:28.719Z,68.50
2023-01-02T12:19:37.539Z,68.60
2023-01-02T12:22:46.227Z,68.60
2023-01-02T12:25:55.027Z,68.60
2023-01-02T12:28:54.568Z,68.60
2023-01-02T12:32:01.236Z,68.60
2023-01-02T12:35:13.897Z,68.70
2023-01-02T12:38:05.448Z,68.80
2023-01-02T12:41:04.215Z,68.80
2023-01-02T12:44:00.646Z,68.90
2023-01-02T12:46:49.668Z,69.00
2023-01-02T12:49:54.948Z,69.10
2023-01-02T12:52:57.628Z,69.30
2023-01-02T12:56:06.418Z,69.40
2023-01-02T12:59:02.501Z,69.50
2023-01-02T13:02:04.288Z,69.50
2023-01-02T13:04:39.170Z,69.60
2023-01-02T13:07:24.476Z,69.70
2023-01-02T13:09:55.710Z,69.60
2023-01-02T13:12:29.154Z,69.70
2023-01-02T13:15:22.926Z,69.80
2023-01-02T13:18:30.876Z,69.90
2023-01-02T13:21:14.005Z,70.00
2023-01-02T13:23:48.636Z,70.10
2023-01-02T13:26:28.174Z,70.10
2023-01-02T13:29:28.992Z,70.90
2023-01-02T13:32:00.834Z,70.40
2023-01-02T13:34:34.165Z,70.50
2023-01-02T13:37:11.467Z,70.60
2023-01-02T13:39:54.897Z,70.50
2023-01-02T13:42:55.262Z,70.60
2023-01-02T13:45:45.053Z,70.60
2023-01-02T13:48:40.412Z,70.60
2023-01-02T13:51:19.668Z,70.50
2023-01-02T13:53:52.318Z,70.50
2023-01-02T13:56:30.540Z,70.50
2023-01-02T13:59:04.013Z,70.50
2023-01-02T14:02:19.502Z,71.00
2023-01-02T14:04:49.345Z,70.80
2023-01-02T14:07:45.465Z,70.80
2023-01-02T14:10:30.120Z,70.90
2023-01-02T14:13:09.536Z,71.00
2023-01-02T14:16:09.610Z,71.10
2023-01-02T14:18:46.062Z,71.30
2023-01-02T14:21:19.429Z,71.50
2023-01-02T14:24:18.221Z,71.60
2023-01-02T14:26:43.796Z,71.70
2023-01-02T14:29:18.556Z,71.70
2023-01-02T14:31:49.532Z,71.90
2023-01-02T14:34:27.405Z,72.00
2023-01-02T14:36:59.919Z,72.00
2023-01-02T14:39:38.378Z,72.20
2023-01-02T14:42:54.408Z,72.30
2023-01-02T14:45:25.648Z,72.40
2023-01-02T14:48:01.557Z,72.60
2023-01-02T14:50:35.405Z,72.50
2023-01-02T14:53:28.076Z,72.60
2023-01-02T14:56:04.773Z,72.70
2023-01-02T14:58:44.956Z,72.80
2023-01-02T15:01:42.509Z,72.90
2023-01-02T15:04:26.904Z,73.00
2023-01-02T15:07:29.356Z,73.10
2023-01-02T15:10:21.140Z,73.20
2023-01-02T15:13:08.939Z,73.40
2023-01-02T15:15:45.924Z,73.50
2023-01-02T15:18:31.094Z,73.50
2023-01-02T15:21:10.340Z,73.40
2023-01-02T15:23:45.198Z,74.10
2023-01-02T15:26:38.777Z,73.50
2023-01-02T15:29:22.353Z,73.60
2023-01-02T15:32:00.775Z,73.60
2023-01-02T15:34:35.435Z,73.60
2023-01-02T15:37:08.633Z,73.60
2023-01-02T15:39:41.754Z,73.70
2023-01-02T15:42:46.646Z,73.70
2023-01-02T15:45:19.079Z,73.80
2023-01-02T15:47:53.365Z,74.00
2023-01-02T15:50:29.795Z,74.00
2023-01-02T15:53:07.114Z,74.00
2023-01-02T15:55:42.348Z,74.00
2023-01-02T15:58:30.977Z,74.10
2023-01-02T16:01:22.262Z,74.20
2023-01-02T16:04:03.153Z,74.30
2023-01-02T16:06:47.064Z,74.40
2023-01-02T16:09:32.919Z,74.40
2023-01-02T16:12:05.191Z,74.50
2023-01-02T16:14:43.231Z,74.70
2023-01-02T16:17:35.760Z,74.70
2023-01-02T16:20:21.303Z,75.00
2023-01-02T16:23:06.099Z,75.10
2023-01-02T16:25:38.184Z,75.30
2023-01-02T16:28:36.155Z,75.40
2023-01-02T16:31:17.219Z,75.50
2023-01-02T16:33:48.055Z,75.50
2023-01-02T16:36:27.288Z,75.70
2023-01-02T16:39:01.177Z,75.70
2023-01-02T16:42:19.709Z,75.70
2023-01-02T16:44:57.531Z,75.70
2023-01-02T16:47:41.428Z,75.90
2023-01-02T16:50:19.421Z,75.90
2023-01-02T16:52:50.202Z,75.90
2023-01-02T16:55:22.354Z,76.00
2023-01-02T16:57:53.377Z,76.00
2023-01-02T17:00:24.571Z,76.10
2023-01-02T17:02:54.609Z,76.20
2023-01-02T17:05:44.623Z,76.40
2023-01-02T17:08:14.319Z,76.50
2023-01-02T17:10:44.142Z,76.60
2023-01-02T17:13:13.996Z,76.60
2023-01-02T17:15:44.019Z,76.60
2023-01-02T17:18:15.005Z,76.70
2023-01-02T17:20:45.114Z,76.80
2023-01-02T17:23:14.925Z,76.90
2023-01-02T17:25:45.463Z,77.00
2023-01-02T17:28:16.011Z,77.10
2023-01-02T17:30:47.155Z,77.10
2023-01-02T17:33:17.290Z,77.20
2023-01-02T17:35:48.562Z,77.30
2023-01-02T17:38:19.165Z,77.30
2023-01-02T17:40:49.000Z,77.40
2023-01-02T17:43:18.688Z,77.40
2023-01-02T17:45:49.090Z,77.50
2023-01-02T17:48:23.850Z,77.60
2023-01-02T17:50:55.623Z,77.70
2023-01-02T17:53:25.481Z,77.70
2023-01-02T17:56:20.833Z,77.70
2023-01-02T17:58:46.578Z,77.70
2023-01-02T18:01:19.834Z,77.90
2023-01-02T18:03:49.836Z,78.10
2023-01-02T18:06:20.471Z,78.10
2023-01-02T18:08:50.796Z,78.30
2023-01-02T18:11:20.571Z,78.40
2023-01-02T18:13:54.917Z,78.30
2023-01-02T18:16:33.856Z,78.50
2023-01-02T18:19:05.794Z,78.40
2023-01-02T18:21:37.014Z,78.50
2023-01-02T18:24:13.955Z,78.40
2023-01-02T18:26:43.809Z,79.00
2023-01-02T18:29:22.729Z,78.30
2023-01-02T18:31:53.277Z,78.40
2023-01-02T18:34:47.798Z,78.50
2023-01-02T18:37:27.908Z,78.70
2023-01-02T18:39:59.017Z,78.70
2023-01-02T18:42:33.862Z,78.70
2023-01-02T18:45:04.439Z,78.70
2023-01-02T18:47:38.872Z,78.90
2023-01-02T18:50:35.425Z,79.00
2023-01-02T18:53:27.767Z,79.20
2023-01-02T18:56:04.550Z,79.20
2023-01-02T18:59:13.313Z,79.20
2023-01-02T19:01:50.253Z,79.40
2023-01-02T19:04:32.732Z,79.50
2023-01-02T19:07:17.715Z,79.60
2023-01-02T19:09:47.347Z,79.70
2023-01-02T19:12:46.648Z,79.60
2023-01-02T19:15:55.403Z,79.70
2023-01-02T19:18:48.663Z,80.10
2023-01-02T19:21:33.383Z,80.20
2023-01-02T19:24:25.812Z,80.20
2023-01-02T19:27:00.082Z,80.00
2023-01-02T19:29:33.908Z,80.20
2023-01-02T19:32:24.649Z,80.10
2023-01-02T19:35:00.417Z,80.40
2023-01-02T19:37:42.147Z,80.40
2023-01-02T19:40:24.343Z,80.80
2023-01-02T19:42:56.112Z,80.80
2023-01-02T19:45:28.070Z,80.90
2023-01-02T19:47:58.439Z,81.20
2023-01-02T19:50:29.153Z,82.00
2023-01-02T19:52:58.679Z,81.40
2023-01-02T19:55:28.299Z,81.50
2023-01-02T19:57:58.097Z,81.50
2023-01-02T20:00:27.741Z,81.60
2023-01-02T20:02:57.531Z,81.70
2023-01-02T20:05:29.306Z,81.70
2023-01-02T20:08:02.336Z,81.80
2023-01-02T20:10:31.970Z,81.80
2023-01-02T20:13:01.541Z,81.90
2023-01-02T20:15:31.301Z,81.90
2023-01-02T20:18:06.623Z,82.00
2023-01-02T20:20:38.339Z,82.00
2023-01-02T20:23:08.010Z,82.10
2023-01-02T20:25:37.657Z,82.00
2023-01-02T20:28:07.356Z,81.90
2023-01-02T20:30:36.948Z,81.80
2023-01-02T20:33:06.639Z,81.80
2023-01-02T20:35:36.305Z,81.70
2023-01-02T20:38:05.851Z,81.60
2023-01-02T20:40:35.389Z,81.40
2023-01-02T20:43:05.109Z,81.30
2023-01-02T20:45:34.776Z,81.20
2023-01-02T20:48:05.217Z,81.10
2023-01-02T20:50:34.899Z,81.20
2023-01-02T20:53:04.726Z,81.10
2023-01-02T20:55:34.836Z,81.20
2023-01-02T20:58:04.994Z,81.20
2023-01-02T21:00:35.398Z,81.30
2023-01-02T21:03:05.838Z,81.20
2023-01-02T21:05:35.807Z,81.20
2023-01-02T21:08:05.945Z,81.20
2023-01-02T21:10:36.597Z,81.10
2023-01-02T21:13:09.323Z,81.20
2023-01-02T21:15:44.160Z,81.20
2023-01-02T21:18:29.304Z,81.20
2023-01-02T21:21:02.585Z,81.30
2023-01-02T21:23:33.709Z,81.10
2023-01-02T21:26:04.059Z,81.20
2023-01-02T21:28:34.805Z,81.30
2023-01-02T21:31:04.538Z,81.40
2023-01-02T21:33:34.299Z,81.40
2023-01-02T21:36:08.344Z,81.40
2023-01-02T21:38:39.315Z,81.40
2023-01-02T21:41:28.685Z,81.40
2023-01-02T21:43:58.456Z,81.40
2023-01-02T21:46:28.043Z,81.40
2023-01-02T21:48:58.419Z,81.30
2023-01-02T21:51:32.737Z,81.20
2023-01-02T21:54:02.876Z,81.10
2023-01-02T21:56:32.543Z,81.10
2023-01-02T21:59:02.610Z,81.10
2023-01-02T22:01:32.374Z,81.00
2023-01-02T22:04:02.189Z,80.90
2023-01-02T22:06:36.745Z,81.00
2023-01-02T22:09:08.372Z,81.00
2023-01-02T22:11:57.747Z,81.00
2023-01-02T22:14:31.076Z,80.90
2023-01-02T22:17:04.404Z,81.00
2023-01-02T22:19:34.623Z,80.80
2023-01-02T22:22:05.017Z,80.90
2023-01-02T22:24:39.160Z,80.90
2023-01-02T22:27:16.144Z,80.90
2023-01-02T22:32:37.014Z,80.90
2023-01-02T22:35:08.528Z,80.90
2023-01-02T22:37:38.131Z,80.80
2023-01-02T22:40:08.092Z,80.90
2023-01-02T22:43:02.704Z,80.80
2023-01-02T22:45:39.120Z,80.80
2023-01-02T22:48:16.366Z,80.80
2023-01-02T22:50:48.279Z,80.90
2023-01-02T22:53:35.795Z,81.00
2023-01-02T22:56:14.613Z,81.00
2023-01-02T22:58:44.410Z,81.00
2023-01-02T23:01:32.900Z,81.00
2023-01-02T23:04:03.163Z,81.00
2023-01-02T23:06:35.548Z,81.00
2023-01-02T23:09:10.702Z,81.10
2023-01-02T23:11:40.584Z,81.20
2023-01-02T23:14:10.235Z,81.10
2023-01-02T23:17:00.171Z,81.10
2023-01-02T23:19:30.017Z,81.10
2023-01-02T23:22:04.306Z,81.10
2023-01-02T23:24:38.835Z,81.00
2023-01-02T23:27:14.207Z,81.10
2023-01-02T23:29:44.004Z,81.10
2023-01-02T23:32:14.303Z,81.20
2023-01-02T23:34:44.086Z,81.20
2023-01-02T23:37:13.868Z,81.20
2023-01-02T23:39:43.536Z,81.20
2023-01-02T23:42:13.282Z,81.30
2023-01-02T23:44:43.697Z,81.30
2023-01-02T23:47:18.700Z,81.30
2023-01-02T23:49:48.931Z,81.40
2023-01-02T23:52:19.357Z,81.40
2023-01-02T23:54:48.991Z,81.40
2023-01-02T23:57:18.755Z,81.40
2023-01-02T23:59:48.365Z,81.40
